sensor_id;sensor_type;location;lat;lon;timestamp;P1;durP1;ratioP1;P2;durP2;ratioP2
10667;SDS011;5382;42.136;24.796;2023-11-21T00:01:55;3.53;;;1.80;;
10667;SDS011;5382;42.136;24.796;2023-11-21T00:04:22;4.00;;;2.00;;
10667;SDS011;5382;42.136;24.796;2023-11-21T00:06:49;3.90;;;2.30;;
10667;SDS011;5382;42.136;24.796;2023-11-21T00:09:18;3.28;;;1.88;;
10667;SDS011;5382;42.136;24.796;2023-11-21T00:11:45;3.35;;;2.03;;
10667;SDS011;5382;42.136;24.796;2023-11-21T00:14:11;3.13;;;2.40;;
10667;SDS011;5382;42.136;24.796;2023-11-21T00:16:40;3.13;;;2.17;;
10667;SDS011;5382;42.136;24.796;2023-11-21T00:19:07;3.45;;;2.35;;
10667;SDS011;5382;42.136;24.796;2023-11-21T00:21:34;2.63;;;1.85;;
10667;SDS011;5382;42.136;24.796;2023-11-21T00:24:01;3.80;;;2.15;;
10667;SDS011;5382;42.136;24.796;2023-11-21T00:26:29;3.47;;;1.98;;
10667;SDS011;5382;42.136;24.796;2023-11-21T00:29:01;3.83;;;1.80;;
10667;SDS011;5382;42.136;24.796;2023-11-21T00:31:28;3.38;;;2.30;;
10667;SDS011;5382;42.136;24.796;2023-11-21T00:33:56;5.13;;;2.28;;
10667;SDS011;5382;42.136;24.796;2023-11-21T00:36:24;3.40;;;2.10;;
10667;SDS011;5382;42.136;24.796;2023-11-21T00:38:51;3.55;;;2.25;;
10667;SDS011;5382;42.136;24.796;2023-11-21T00:41:18;2.97;;;2.28;;
10667;SDS011;5382;42.136;24.796;2023-11-21T00:43:46;3.65;;;2.20;;
10667;SDS011;5382;42.136;24.796;2023-11-21T00:46:13;3.17;;;2.78;;
10667;SDS011;5382;42.136;24.796;2023-11-21T00:48:40;3.85;;;2.22;;
10667;SDS011;5382;42.136;24.796;2023-11-21T00:51:07;3.97;;;2.63;;
10667;SDS011;5382;42.136;24.796;2023-11-21T00:53:34;4.70;;;2.85;;
10667;SDS011;5382;42.136;24.796;2023-11-21T00:56:01;4.70;;;3.08;;
10667;SDS011;5382;42.136;24.796;2023-11-21T00:58:28;5.93;;;2.78;;
10667;SDS011;5382;42.136;24.796;2023-11-21T01:00:57;4.53;;;2.83;;
10667;SDS011;5382;42.136;24.796;2023-11-21T01:03:24;4.50;;;2.75;;
10667;SDS011;5382;42.136;24.796;2023-11-21T01:05:51;5.05;;;3.45;;
10667;SDS011;5382;42.136;24.796;2023-11-21T01:08:18;5.38;;;3.85;;
10667;SDS011;5382;42.136;24.796;2023-11-21T01:10:45;6.32;;;2.60;;
10667;SDS011;5382;42.136;24.796;2023-11-21T01:13:12;5.68;;;2.90;;
10667;SDS011;5382;42.136;24.796;2023-11-21T01:15:40;5.70;;;3.03;;
10667;SDS011;5382;42.136;24.796;2023-11-21T01:18:09;6.53;;;3.08;;
10667;SDS011;5382;42.136;24.796;2023-11-21T01:20:36;5.38;;;3.53;;
10667;SDS011;5382;42.136;24.796;2023-11-21T01:23:03;5.57;;;3.33;;
10667;SDS011;5382;42.136;24.796;2023-11-21T01:25:30;5.43;;;3.35;;
10667;SDS011;5382;42.136;24.796;2023-11-21T01:27:56;7.28;;;2.92;;
10667;SDS011;5382;42.136;24.796;2023-11-21T01:30:23;3.60;;;2.88;;
10667;SDS011;5382;42.136;24.796;2023-11-21T01:32:50;3.13;;;2.35;;
10667;SDS011;5382;42.136;24.796;2023-11-21T01:35:19;5.03;;;3.22;;
10667;SDS011;5382;42.136;24.796;2023-11-21T01:37:45;4.22;;;3.45;;
10667;SDS011;5382;42.136;24.796;2023-11-21T01:40:13;5.28;;;2.97;;
10667;SDS011;5382;42.136;24.796;2023-11-21T01:42:40;4.22;;;3.08;;
10667;SDS011;5382;42.136;24.796;2023-11-21T01:45:09;6.47;;;3.50;;
10667;SDS011;5382;42.136;24.796;2023-11-21T01:47:37;7.05;;;2.90;;
10667;SDS011;5382;42.136;24.796;2023-11-21T01:50:07;6.65;;;2.95;;
10667;SDS011;5382;42.136;24.796;2023-11-21T01:52:38;4.05;;;3.22;;
10667;SDS011;5382;42.136;24.796;2023-11-21T01:55:06;6.07;;;3.08;;
10667;SDS011;5382;42.136;24.796;2023-11-21T01:57:35;4.40;;;3.00;;
10667;SDS011;5382;42.136;24.796;2023-11-21T02:00:04;6.10;;;3.50;;
10667;SDS011;5382;42.136;24.796;2023-11-21T02:02:41;6.63;;;3.67;;
10667;SDS011;5382;42.136;24.796;2023-11-21T02:05:09;5.70;;;3.30;;
10667;SDS011;5382;42.136;24.796;2023-11-21T02:07:39;4.75;;;3.22;;
10667;SDS011;5382;42.136;24.796;2023-11-21T02:10:06;7.07;;;3.55;;
10667;SDS011;5382;42.136;24.796;2023-11-21T02:12:33;6.18;;;3.80;;
10667;SDS011;5382;42.136;24.796;2023-11-21T02:15:01;7.28;;;4.15;;
10667;SDS011;5382;42.136;24.796;2023-11-21T02:17:30;7.03;;;4.15;;
10667;SDS011;5382;42.136;24.796;2023-11-21T02:19:57;9.05;;;6.35;;
10667;SDS011;5382;42.136;24.796;2023-11-21T02:22:25;6.68;;;5.05;;
10667;SDS011;5382;42.136;24.796;2023-11-21T02:24:58;8.52;;;3.15;;
10667;SDS011;5382;42.136;24.796;2023-11-21T02:27:26;5.15;;;3.20;;
10667;SDS011;5382;42.136;24.796;2023-11-21T02:29:53;6.15;;;3.97;;
10667;SDS011;5382;42.136;24.796;2023-11-21T02:32:20;4.55;;;3.33;;
10667;SDS011;5382;42.136;24.796;2023-11-21T02:34:48;4.40;;;3.38;;
10667;SDS011;5382;42.136;24.796;2023-11-21T02:37:15;5.55;;;3.65;;
10667;SDS011;5382;42.136;24.796;2023-11-21T02:39:42;5.57;;;4.00;;
10667;SDS011;5382;42.136;24.796;2023-11-21T02:42:10;6.25;;;3.60;;
10667;SDS011;5382;42.136;24.796;2023-11-21T02:44:37;6.78;;;4.70;;
10667;SDS011;5382;42.136;24.796;2023-11-21T02:47:04;5.93;;;3.25;;
10667;SDS011;5382;42.136;24.796;2023-11-21T02:49:31;3.83;;;3.10;;
10667;SDS011;5382;42.136;24.796;2023-11-21T02:51:59;5.07;;;3.70;;
10667;SDS011;5382;42.136;24.796;2023-11-21T02:54:27;5.13;;;3.80;;
10667;SDS011;5382;42.136;24.796;2023-11-21T02:56:53;7.85;;;4.20;;
10667;SDS011;5382;42.136;24.796;2023-11-21T02:59:22;7.13;;;3.90;;
10667;SDS011;5382;42.136;24.796;2023-11-21T03:01:49;6.40;;;4.20;;
10667;SDS011;5382;42.136;24.796;2023-11-21T03:04:16;6.78;;;4.05;;
10667;SDS011;5382;42.136;24.796;2023-11-21T03:06:43;4.47;;;3.60;;
10667;SDS011;5382;42.136;24.796;2023-11-21T03:09:10;6.05;;;4.15;;
10667;SDS011;5382;42.136;24.796;2023-11-21T03:11:38;7.97;;;3.90;;
10667;SDS011;5382;42.136;24.796;2023-11-21T03:14:05;9.52;;;5.25;;
10667;SDS011;5382;42.136;24.796;2023-11-21T03:16:33;11.55;;;5.88;;
10667;SDS011;5382;42.136;24.796;2023-11-21T03:19:00;21.33;;;10.23;;
10667;SDS011;5382;42.136;24.796;2023-11-21T03:21:28;15.85;;;7.18;;
10667;SDS011;5382;42.136;24.796;2023-11-21T03:23:55;13.20;;;7.15;;
10667;SDS011;5382;42.136;24.796;2023-11-21T03:26:22;14.10;;;8.30;;
10667;SDS011;5382;42.136;24.796;2023-11-21T03:28:49;15.80;;;8.10;;
10667;SDS011;5382;42.136;24.796;2023-11-21T03:31:18;6.55;;;3.85;;
10667;SDS011;5382;42.136;24.796;2023-11-21T03:33:47;4.90;;;3.47;;
10667;SDS011;5382;42.136;24.796;2023-11-21T03:36:14;5.20;;;3.40;;
10667;SDS011;5382;42.136;24.796;2023-11-21T03:38:43;6.60;;;3.97;;
10667;SDS011;5382;42.136;24.796;2023-11-21T03:41:10;7.60;;;4.05;;
10667;SDS011;5382;42.136;24.796;2023-11-21T03:43:37;7.45;;;4.05;;
10667;SDS011;5382;42.136;24.796;2023-11-21T03:46:04;7.63;;;4.13;;
10667;SDS011;5382;42.136;24.796;2023-11-21T03:48:31;6.93;;;3.75;;
10667;SDS011;5382;42.136;24.796;2023-11-21T03:50:59;7.65;;;4.50;;
10667;SDS011;5382;42.136;24.796;2023-11-21T03:53:26;6.68;;;4.05;;
10667;SDS011;5382;42.136;24.796;2023-11-21T03:55:53;6.80;;;4.40;;
10667;SDS011;5382;42.136;24.796;2023-11-21T03:58:20;12.30;;;4.95;;
10667;SDS011;5382;42.136;24.796;2023-11-21T04:00:47;6.45;;;4.13;;
10667;SDS011;5382;42.136;24.796;2023-11-21T04:03:15;4.95;;;3.55;;
10667;SDS011;5382;42.136;24.796;2023-11-21T04:05:42;6.68;;;4.32;;
10667;SDS011;5382;42.136;24.796;2023-11-21T04:08:10;5.20;;;3.95;;
10667;SDS011;5382;42.136;24.796;2023-11-21T04:10:37;6.30;;;3.58;;
10667;SDS011;5382;42.136;24.796;2023-11-21T04:13:05;5.28;;;3.50;;
10667;SDS011;5382;42.136;24.796;2023-11-21T04:15:32;4.05;;;3.17;;
10667;SDS011;5382;42.136;24.796;2023-11-21T04:17:59;6.40;;;4.13;;
10667;SDS011;5382;42.136;24.796;2023-11-21T04:20:28;13.02;;;3.70;;
10667;SDS011;5382;42.136;24.796;2023-11-21T04:22:55;7.13;;;4.03;;
10667;SDS011;5382;42.136;24.796;2023-11-21T04:25:23;5.47;;;4.25;;
10667;SDS011;5382;42.136;24.796;2023-11-21T04:27:50;6.57;;;3.75;;
10667;SDS011;5382;42.136;24.796;2023-11-21T04:30:17;8.27;;;3.50;;
10667;SDS011;5382;42.136;24.796;2023-11-21T04:32:44;5.32;;;3.35;;
10667;SDS011;5382;42.136;24.796;2023-11-21T04:35:11;7.00;;;3.67;;
10667;SDS011;5382;42.136;24.796;2023-11-21T04:37:38;7.93;;;3.80;;
10667;SDS011;5382;42.136;24.796;2023-11-21T04:40:05;8.10;;;4.93;;
10667;SDS011;5382;42.136;24.796;2023-11-21T04:42:35;13.45;;;6.40;;
10667;SDS011;5382;42.136;24.796;2023-11-21T04:45:02;7.55;;;3.80;;
10667;SDS011;5382;42.136;24.796;2023-11-21T04:47:32;7.68;;;4.50;;
10667;SDS011;5382;42.136;24.796;2023-11-21T04:49:59;5.65;;;3.60;;
10667;SDS011;5382;42.136;24.796;2023-11-21T04:52:26;7.15;;;4.47;;
10667;SDS011;5382;42.136;24.796;2023-11-21T04:54:53;8.50;;;4.47;;
10667;SDS011;5382;42.136;24.796;2023-11-21T04:57:24;10.18;;;4.03;;
10667;SDS011;5382;42.136;24.796;2023-11-21T04:59:52;11.60;;;4.32;;
10667;SDS011;5382;42.136;24.796;2023-11-21T05:02:19;7.68;;;5.25;;
10667;SDS011;5382;42.136;24.796;2023-11-21T05:04:46;9.75;;;4.78;;
10667;SDS011;5382;42.136;24.796;2023-11-21T05:07:13;8.13;;;4.32;;
10667;SDS011;5382;42.136;24.796;2023-11-21T05:09:41;7.82;;;4.15;;
10667;SDS011;5382;42.136;24.796;2023-11-21T05:12:09;8.68;;;4.53;;
10667;SDS011;5382;42.136;24.796;2023-11-21T05:14:37;8.20;;;4.75;;
10667;SDS011;5382;42.136;24.796;2023-11-21T05:17:06;9.65;;;4.80;;
10667;SDS011;5382;42.136;24.796;2023-11-21T05:19:34;12.70;;;5.00;;
10667;SDS011;5382;42.136;24.796;2023-11-21T05:22:01;13.82;;;4.95;;
10667;SDS011;5382;42.136;24.796;2023-11-21T05:24:29;9.73;;;5.22;;
10667;SDS011;5382;42.136;24.796;2023-11-21T05:26:56;9.65;;;5.10;;
10667;SDS011;5382;42.136;24.796;2023-11-21T05:29:23;11.07;;;5.07;;
10667;SDS011;5382;42.136;24.796;2023-11-21T05:31:50;11.05;;;5.20;;
10667;SDS011;5382;42.136;24.796;2023-11-21T05:34:19;16.40;;;5.90;;
10667;SDS011;5382;42.136;24.796;2023-11-21T05:36:49;10.50;;;5.20;;
10667;SDS011;5382;42.136;24.796;2023-11-21T05:39:16;13.93;;;5.10;;
10667;SDS011;5382;42.136;24.796;2023-11-21T05:41:44;13.70;;;5.10;;
10667;SDS011;5382;42.136;24.796;2023-11-21T05:44:12;7.00;;;4.28;;
10667;SDS011;5382;42.136;24.796;2023-11-21T05:46:40;10.68;;;4.95;;
10667;SDS011;5382;42.136;24.796;2023-11-21T05:49:08;9.65;;;4.68;;
10667;SDS011;5382;42.136;24.796;2023-11-21T05:51:37;13.70;;;5.07;;
10667;SDS011;5382;42.136;24.796;2023-11-21T05:54:04;13.70;;;5.15;;
10667;SDS011;5382;42.136;24.796;2023-11-21T05:56:31;16.02;;;5.55;;
10667;SDS011;5382;42.136;24.796;2023-11-21T05:58:58;13.68;;;5.55;;
10667;SDS011;5382;42.136;24.796;2023-11-21T06:01:25;16.08;;;8.23;;
10667;SDS011;5382;42.136;24.796;2023-11-21T06:03:53;22.77;;;9.35;;
10667;SDS011;5382;42.136;24.796;2023-11-21T06:06:21;12.23;;;6.45;;
10667;SDS011;5382;42.136;24.796;2023-11-21T06:09:06;13.73;;;8.48;;
10667;SDS011;5382;42.136;24.796;2023-11-21T06:11:34;12.90;;;7.70;;
10667;SDS011;5382;42.136;24.796;2023-11-21T06:14:01;12.15;;;6.05;;
10667;SDS011;5382;42.136;24.796;2023-11-21T06:16:28;7.45;;;5.97;;
10667;SDS011;5382;42.136;24.796;2023-11-21T06:18:55;24.45;;;6.35;;
10667;SDS011;5382;42.136;24.796;2023-11-21T06:21:22;8.82;;;5.32;;
10667;SDS011;5382;42.136;24.796;2023-11-21T06:23:49;11.65;;;5.55;;
10667;SDS011;5382;42.136;24.796;2023-11-21T06:26:19;6.93;;;5.28;;
10667;SDS011;5382;42.136;24.796;2023-11-21T06:28:46;11.65;;;6.65;;
10667;SDS011;5382;42.136;24.796;2023-11-21T06:31:13;9.68;;;6.00;;
10667;SDS011;5382;42.136;24.796;2023-11-21T06:33:40;10.85;;;5.97;;
10667;SDS011;5382;42.136;24.796;2023-11-21T06:36:07;10.18;;;5.95;;
10667;SDS011;5382;42.136;24.796;2023-11-21T06:38:36;14.98;;;6.53;;
10667;SDS011;5382;42.136;24.796;2023-11-21T06:41:03;13.10;;;5.78;;
10667;SDS011;5382;42.136;24.796;2023-11-21T06:43:32;15.95;;;6.28;;
10667;SDS011;5382;42.136;24.796;2023-11-21T06:45:59;8.85;;;6.22;;
10667;SDS011;5382;42.136;24.796;2023-11-21T06:48:26;14.32;;;7.32;;
10667;SDS011;5382;42.136;24.796;2023-11-21T06:50:53;13.02;;;7.20;;
10667;SDS011;5382;42.136;24.796;2023-11-21T06:53:20;15.48;;;7.45;;
10667;SDS011;5382;42.136;24.796;2023-11-21T06:55:47;24.33;;;9.77;;
10667;SDS011;5382;42.136;24.796;2023-11-21T06:58:13;22.30;;;9.20;;
10667;SDS011;5382;42.136;24.796;2023-11-21T07:00:42;28.13;;;9.88;;
10667;SDS011;5382;42.136;24.796;2023-11-21T07:03:11;21.30;;;9.90;;
10667;SDS011;5382;42.136;24.796;2023-11-21T07:05:38;15.27;;;10.27;;
10667;SDS011;5382;42.136;24.796;2023-11-21T07:08:05;18.65;;;10.00;;
10667;SDS011;5382;42.136;24.796;2023-11-21T07:10:32;15.45;;;9.15;;
10667;SDS011;5382;42.136;24.796;2023-11-21T07:13:00;20.92;;;10.68;;
10667;SDS011;5382;42.136;24.796;2023-11-21T07:15:27;20.25;;;10.07;;
10667;SDS011;5382;42.136;24.796;2023-11-21T07:17:55;24.00;;;10.63;;
10667;SDS011;5382;42.136;24.796;2023-11-21T07:20:22;12.95;;;9.15;;
10667;SDS011;5382;42.136;24.796;2023-11-21T07:22:49;12.15;;;9.40;;
10667;SDS011;5382;42.136;24.796;2023-11-21T07:25:15;16.85;;;9.23;;
10667;SDS011;5382;42.136;24.796;2023-11-21T07:27:42;15.45;;;7.80;;
10667;SDS011;5382;42.136;24.796;2023-11-21T07:30:10;17.77;;;11.10;;
10667;SDS011;5382;42.136;24.796;2023-11-21T07:32:38;23.38;;;10.50;;
10667;SDS011;5382;42.136;24.796;2023-11-21T07:35:08;28.00;;;11.82;;
10667;SDS011;5382;42.136;24.796;2023-11-21T07:37:35;19.42;;;10.93;;
10667;SDS011;5382;42.136;24.796;2023-11-21T07:40:02;13.88;;;8.93;;
10667;SDS011;5382;42.136;24.796;2023-11-21T07:42:30;14.48;;;8.98;;
10667;SDS011;5382;42.136;24.796;2023-11-21T07:44:57;20.65;;;9.73;;
10667;SDS011;5382;42.136;24.796;2023-11-21T07:47:24;19.25;;;9.45;;
10667;SDS011;5382;42.136;24.796;2023-11-21T07:49:52;19.13;;;9.80;;
10667;SDS011;5382;42.136;24.796;2023-11-21T07:52:22;21.55;;;9.50;;
10667;SDS011;5382;42.136;24.796;2023-11-21T07:54:49;22.75;;;12.23;;
10667;SDS011;5382;42.136;24.796;2023-11-21T07:57:16;18.90;;;11.95;;
10667;SDS011;5382;42.136;24.796;2023-11-21T07:59:43;20.60;;;9.88;;
10667;SDS011;5382;42.136;24.796;2023-11-21T08:02:10;16.42;;;9.52;;
10667;SDS011;5382;42.136;24.796;2023-11-21T08:04:37;23.95;;;9.70;;
10667;SDS011;5382;42.136;24.796;2023-11-21T08:07:03;16.88;;;9.18;;
10667;SDS011;5382;42.136;24.796;2023-11-21T08:09:32;11.38;;;7.40;;
10667;SDS011;5382;42.136;24.796;2023-11-21T08:11:59;15.50;;;7.85;;
10667;SDS011;5382;42.136;24.796;2023-11-21T08:14:27;11.07;;;7.20;;
10667;SDS011;5382;42.136;24.796;2023-11-21T08:16:54;22.08;;;8.10;;
10667;SDS011;5382;42.136;24.796;2023-11-21T08:19:22;15.43;;;8.82;;
10667;SDS011;5382;42.136;24.796;2023-11-21T08:21:51;15.70;;;7.13;;
10667;SDS011;5382;42.136;24.796;2023-11-21T08:24:20;20.92;;;7.68;;
10667;SDS011;5382;42.136;24.796;2023-11-21T08:26:48;12.65;;;6.82;;
10667;SDS011;5382;42.136;24.796;2023-11-21T08:29:16;12.43;;;6.95;;
10667;SDS011;5382;42.136;24.796;2023-11-21T08:31:43;11.57;;;7.30;;
10667;SDS011;5382;42.136;24.796;2023-11-21T08:34:11;9.38;;;5.93;;
10667;SDS011;5382;42.136;24.796;2023-11-21T08:36:41;9.57;;;6.32;;
10667;SDS011;5382;42.136;24.796;2023-11-21T08:39:08;9.48;;;6.38;;
10667;SDS011;5382;42.136;24.796;2023-11-21T08:41:35;10.95;;;6.38;;
10667;SDS011;5382;42.136;24.796;2023-11-21T08:44:04;12.90;;;6.72;;
10667;SDS011;5382;42.136;24.796;2023-11-21T08:46:32;9.93;;;6.68;;
10667;SDS011;5382;42.136;24.796;2023-11-21T08:49:03;12.40;;;6.43;;
10667;SDS011;5382;42.136;24.796;2023-11-21T08:51:31;13.27;;;6.40;;
10667;SDS011;5382;42.136;24.796;2023-11-21T08:53:58;12.38;;;6.95;;
10667;SDS011;5382;42.136;24.796;2023-11-21T08:56:27;14.00;;;7.85;;
10667;SDS011;5382;42.136;24.796;2023-11-21T08:58:54;10.98;;;8.10;;
10667;SDS011;5382;42.136;24.796;2023-11-21T09:01:23;19.25;;;9.38;;
10667;SDS011;5382;42.136;24.796;2023-11-21T09:03:51;11.90;;;6.55;;
10667;SDS011;5382;42.136;24.796;2023-11-21T09:06:17;9.75;;;7.50;;
10667;SDS011;5382;42.136;24.796;2023-11-21T09:08:44;15.93;;;8.00;;
10667;SDS011;5382;42.136;24.796;2023-11-21T09:11:12;14.13;;;7.72;;
10667;SDS011;5382;42.136;24.796;2023-11-21T09:13:39;12.23;;;6.93;;
10667;SDS011;5382;42.136;24.796;2023-11-21T09:16:06;8.02;;;5.90;;
10667;SDS011;5382;42.136;24.796;2023-11-21T09:18:35;23.08;;;8.00;;
10667;SDS011;5382;42.136;24.796;2023-11-21T09:21:01;14.25;;;7.85;;
10667;SDS011;5382;42.136;24.796;2023-11-21T09:23:29;24.42;;;8.93;;
10667;SDS011;5382;42.136;24.796;2023-11-21T09:25:56;9.80;;;6.93;;
10667;SDS011;5382;42.136;24.796;2023-11-21T09:28:25;12.55;;;7.70;;
10667;SDS011;5382;42.136;24.796;2023-11-21T09:30:52;11.43;;;6.93;;
10667;SDS011;5382;42.136;24.796;2023-11-21T09:33:19;12.45;;;7.00;;
10667;SDS011;5382;42.136;24.796;2023-11-21T09:35:48;11.60;;;7.22;;
10667;SDS011;5382;42.136;24.796;2023-11-21T09:38:16;13.18;;;5.90;;
10667;SDS011;5382;42.136;24.796;2023-11-21T09:40:43;11.48;;;6.10;;
10667;SDS011;5382;42.136;24.796;2023-11-21T09:43:13;9.63;;;6.22;;
10667;SDS011;5382;42.136;24.796;2023-11-21T09:45:45;12.95;;;6.10;;
10667;SDS011;5382;42.136;24.796;2023-11-21T09:48:13;12.27;;;6.40;;
10667;SDS011;5382;42.136;24.796;2023-11-21T09:50:41;12.85;;;6.43;;
10667;SDS011;5382;42.136;24.796;2023-11-21T09:53:12;15.00;;;7.00;;
10667;SDS011;5382;42.136;24.796;2023-11-21T09:55:44;11.85;;;6.35;;
10667;SDS011;5382;42.136;24.796;2023-11-21T09:58:12;12.75;;;7.20;;
10667;SDS011;5382;42.136;24.796;2023-11-21T10:00:40;8.82;;;6.60;;
10667;SDS011;5382;42.136;24.796;2023-11-21T10:03:08;14.52;;;5.72;;
10667;SDS011;5382;42.136;24.796;2023-11-21T10:05:35;11.50;;;6.32;;
10667;SDS011;5382;42.136;24.796;2023-11-21T10:08:02;10.38;;;6.72;;
10667;SDS011;5382;42.136;24.796;2023-11-21T10:10:33;8.15;;;5.80;;
10667;SDS011;5382;42.136;24.796;2023-11-21T10:13:02;8.82;;;5.85;;
10667;SDS011;5382;42.136;24.796;2023-11-21T10:15:32;12.88;;;6.35;;
10667;SDS011;5382;42.136;24.796;2023-11-21T10:18:04;10.27;;;6.63;;
10667;SDS011;5382;42.136;24.796;2023-11-21T10:20:34;12.90;;;6.88;;
10667;SDS011;5382;42.136;24.796;2023-11-21T10:23:03;13.52;;;6.38;;
10667;SDS011;5382;42.136;24.796;2023-11-21T10:25:34;13.82;;;6.90;;
10667;SDS011;5382;42.136;24.796;2023-11-21T10:28:02;12.40;;;7.18;;
10667;SDS011;5382;42.136;24.796;2023-11-21T10:30:35;11.07;;;6.95;;
10667;SDS011;5382;42.136;24.796;2023-11-21T10:33:03;13.05;;;7.45;;
10667;SDS011;5382;42.136;24.796;2023-11-21T10:35:43;12.10;;;7.03;;
10667;SDS011;5382;42.136;24.796;2023-11-21T10:38:16;12.13;;;7.03;;
10667;SDS011;5382;42.136;24.796;2023-11-21T10:40:44;7.60;;;5.25;;
10667;SDS011;5382;42.136;24.796;2023-11-21T10:43:11;8.88;;;5.38;;
10667;SDS011;5382;42.136;24.796;2023-11-21T10:45:40;7.05;;;4.78;;
10667;SDS011;5382;42.136;24.796;2023-11-21T10:48:07;9.15;;;4.60;;
10667;SDS011;5382;42.136;24.796;2023-11-21T10:50:36;7.22;;;4.88;;
10667;SDS011;5382;42.136;24.796;2023-11-21T10:53:04;7.35;;;6.00;;
10667;SDS011;5382;42.136;24.796;2023-11-21T10:55:32;10.18;;;5.03;;
10667;SDS011;5382;42.136;24.796;2023-11-21T10:58:01;6.75;;;4.75;;
10667;SDS011;5382;42.136;24.796;2023-11-21T11:00:30;8.52;;;4.90;;
10667;SDS011;5382;42.136;24.796;2023-11-21T11:02:58;5.97;;;3.90;;
10667;SDS011;5382;42.136;24.796;2023-11-21T11:05:26;4.40;;;3.30;;
10667;SDS011;5382;42.136;24.796;2023-11-21T11:07:57;6.47;;;4.10;;
10667;SDS011;5382;42.136;24.796;2023-11-21T11:10:26;10.10;;;4.05;;
10667;SDS011;5382;42.136;24.796;2023-11-21T11:12:54;9.10;;;4.25;;
10667;SDS011;5382;42.136;24.796;2023-11-21T11:15:24;8.10;;;4.03;;
10667;SDS011;5382;42.136;24.796;2023-11-21T11:17:52;11.43;;;3.45;;
10667;SDS011;5382;42.136;24.796;2023-11-21T11:20:22;5.97;;;3.78;;
10667;SDS011;5382;42.136;24.796;2023-11-21T11:22:54;8.00;;;4.13;;
10667;SDS011;5382;42.136;24.796;2023-11-21T11:25:35;6.22;;;3.50;;
10667;SDS011;5382;42.136;24.796;2023-11-21T11:28:14;10.35;;;4.65;;
10667;SDS011;5382;42.136;24.796;2023-11-21T11:30:53;6.28;;;3.25;;
10667;SDS011;5382;42.136;24.796;2023-11-21T11:33:31;5.80;;;3.97;;
10667;SDS011;5382;42.136;24.796;2023-11-21T11:36:06;4.32;;;3.33;;
10667;SDS011;5382;42.136;24.796;2023-11-21T11:38:44;5.05;;;2.90;;
10667;SDS011;5382;42.136;24.796;2023-11-21T11:41:15;3.45;;;2.60;;
10667;SDS011;5382;42.136;24.796;2023-11-21T11:43:51;8.18;;;3.47;;
10667;SDS011;5382;42.136;24.796;2023-11-21T11:46:20;8.18;;;3.80;;
10667;SDS011;5382;42.136;24.796;2023-11-21T11:49:06;5.47;;;3.58;;
10667;SDS011;5382;42.136;24.796;2023-11-21T11:51:33;6.80;;;3.80;;
10667;SDS011;5382;42.136;24.796;2023-11-21T11:54:01;4.82;;;3.33;;
10667;SDS011;5382;42.136;24.796;2023-11-21T11:56:29;7.05;;;3.40;;
10667;SDS011;5382;42.136;24.796;2023-11-21T11:58:59;6.32;;;4.20;;
10667;SDS011;5382;42.136;24.796;2023-11-21T12:01:30;8.45;;;5.00;;
10667;SDS011;5382;42.136;24.796;2023-11-21T12:06:56;10.63;;;4.88;;
10667;SDS011;5382;42.136;24.796;2023-11-21T12:09:25;11.23;;;6.22;;
10667;SDS011;5382;42.136;24.796;2023-11-21T12:11:53;7.82;;;5.55;;
10667;SDS011;5382;42.136;24.796;2023-11-21T12:14:22;6.22;;;5.07;;
10667;SDS011;5382;42.136;24.796;2023-11-21T12:16:51;7.10;;;5.68;;
10667;SDS011;5382;42.136;24.796;2023-11-21T12:19:18;5.35;;;4.13;;
10667;SDS011;5382;42.136;24.796;2023-11-21T12:21:47;6.00;;;3.60;;
10667;SDS011;5382;42.136;24.796;2023-11-21T12:24:15;5.88;;;3.90;;
10667;SDS011;5382;42.136;24.796;2023-11-21T12:26:43;4.95;;;3.30;;
10667;SDS011;5382;42.136;24.796;2023-11-21T12:29:10;6.45;;;3.30;;
10667;SDS011;5382;42.136;24.796;2023-11-21T12:31:37;13.95;;;3.30;;
10667;SDS011;5382;42.136;24.796;2023-11-21T12:34:06;3.90;;;3.03;;
10667;SDS011;5382;42.136;24.796;2023-11-21T12:36:36;3.45;;;2.63;;
10667;SDS011;5382;42.136;24.796;2023-11-21T12:39:04;4.25;;;3.10;;
10667;SDS011;5382;42.136;24.796;2023-11-21T12:41:31;4.50;;;2.67;;
10667;SDS011;5382;42.136;24.796;2023-11-21T12:43:58;6.28;;;3.08;;
10667;SDS011;5382;42.136;24.796;2023-11-21T12:49:01;4.78;;;2.60;;
10667;SDS011;5382;42.136;24.796;2023-11-21T12:51:29;8.10;;;3.47;;
10667;SDS011;5382;42.136;24.796;2023-11-21T12:53:56;6.38;;;3.28;;
10667;SDS011;5382;42.136;24.796;2023-11-21T12:56:24;4.25;;;2.90;;
10667;SDS011;5382;42.136;24.796;2023-11-21T12:58:53;5.07;;;3.15;;
10667;SDS011;5382;42.136;24.796;2023-11-21T13:01:25;4.30;;;3.47;;
10667;SDS011;5382;42.136;24.796;2023-11-21T13:03:53;4.55;;;2.95;;
10667;SDS011;5382;42.136;24.796;2023-11-21T13:06:20;4.15;;;3.38;;
10667;SDS011;5382;42.136;24.796;2023-11-21T13:08:51;6.35;;;3.85;;
10667;SDS011;5382;42.136;24.796;2023-11-21T13:11:19;7.28;;;4.93;;
10667;SDS011;5382;42.136;24.796;2023-11-21T13:13:46;5.97;;;4.13;;
10667;SDS011;5382;42.136;24.796;2023-11-21T13:16:12;7.20;;;3.78;;
10667;SDS011;5382;42.136;24.796;2023-11-21T13:18:40;5.85;;;3.75;;
10667;SDS011;5382;42.136;24.796;2023-11-21T13:21:07;6.60;;;4.13;;
10667;SDS011;5382;42.136;24.796;2023-11-21T13:23:38;9.10;;;3.67;;
10667;SDS011;5382;42.136;24.796;2023-11-21T13:26:08;8.93;;;3.95;;
10667;SDS011;5382;42.136;24.796;2023-11-21T13:28:35;9.18;;;3.95;;
10667;SDS011;5382;42.136;24.796;2023-11-21T13:31:03;7.80;;;4.07;;
10667;SDS011;5382;42.136;24.796;2023-11-21T13:33:45;5.63;;;3.90;;
10667;SDS011;5382;42.136;24.796;2023-11-21T13:36:16;4.45;;;3.20;;
10667;SDS011;5382;42.136;24.796;2023-11-21T13:38:47;5.35;;;3.60;;
10667;SDS011;5382;42.136;24.796;2023-11-21T13:41:16;4.75;;;3.53;;
10667;SDS011;5382;42.136;24.796;2023-11-21T13:43:43;6.60;;;4.22;;
10667;SDS011;5382;42.136;24.796;2023-11-21T13:46:17;5.97;;;3.70;;
10667;SDS011;5382;42.136;24.796;2023-11-21T13:48:47;4.70;;;4.03;;
10667;SDS011;5382;42.136;24.796;2023-11-21T13:51:16;6.25;;;3.83;;
10667;SDS011;5382;42.136;24.796;2023-11-21T13:53:43;6.60;;;4.57;;
10667;SDS011;5382;42.136;24.796;2023-11-21T13:56:13;6.20;;;4.57;;
10667;SDS011;5382;42.136;24.796;2023-11-21T13:58:45;9.55;;;4.88;;
10667;SDS011;5382;42.136;24.796;2023-11-21T14:01:16;8.38;;;4.85;;
10667;SDS011;5382;42.136;24.796;2023-11-21T14:04:06;7.65;;;4.78;;
10667;SDS011;5382;42.136;24.796;2023-11-21T14:06:44;10.32;;;5.05;;
10667;SDS011;5382;42.136;24.796;2023-11-21T14:09:13;8.60;;;5.95;;
10667;SDS011;5382;42.136;24.796;2023-11-21T14:11:48;9.23;;;5.32;;
10667;SDS011;5382;42.136;24.796;2023-11-21T14:14:18;8.95;;;5.82;;
10667;SDS011;5382;42.136;24.796;2023-11-21T14:16:45;12.25;;;6.60;;
10667;SDS011;5382;42.136;24.796;2023-11-21T14:19:12;7.40;;;5.93;;
10667;SDS011;5382;42.136;24.796;2023-11-21T14:21:42;10.80;;;6.55;;
10667;SDS011;5382;42.136;24.796;2023-11-21T14:24:10;9.40;;;5.72;;
10667;SDS011;5382;42.136;24.796;2023-11-21T14:26:38;10.10;;;6.70;;
10667;SDS011;5382;42.136;24.796;2023-11-21T14:29:08;8.52;;;5.80;;
10667;SDS011;5382;42.136;24.796;2023-11-21T14:31:40;14.43;;;9.00;;
10667;SDS011;5382;42.136;24.796;2023-11-21T14:34:08;14.15;;;8.15;;
10667;SDS011;5382;42.136;24.796;2023-11-21T14:36:37;13.70;;;6.90;;
10667;SDS011;5382;42.136;24.796;2023-11-21T14:39:06;11.65;;;6.57;;
10667;SDS011;5382;42.136;24.796;2023-11-21T14:41:38;9.02;;;5.65;;
10667;SDS011;5382;42.136;24.796;2023-11-21T14:44:05;11.70;;;8.57;;
10667;SDS011;5382;42.136;24.796;2023-11-21T14:46:37;11.60;;;7.40;;
10667;SDS011;5382;42.136;24.796;2023-11-21T14:49:06;18.17;;;8.85;;
10667;SDS011;5382;42.136;24.796;2023-11-21T14:51:44;14.18;;;10.55;;
10667;SDS011;5382;42.136;24.796;2023-11-21T14:54:25;8.43;;;6.28;;
10667;SDS011;5382;42.136;24.796;2023-11-21T14:57:05;9.60;;;5.70;;